Paramount Hamilton — 2CWB2 — position and weather

sailwx.info

Track history (hours):
 
Tides and Currents Weather Stations Pressure Air Temp Water Temp Dewpoint Dewpoint Depression Visibility Wind Speed Wind Dir Waves Ship Positions

Paramount Hamilton

Last reported at 2014-Dec-11 14:15 UTC. Time now 2014-Dec-19 17:27 UTC.
Position N 39°51' W 075°20'.
Warning: this ship's position is 8 days out of date.

Length 250 m; draft 10.6 m.

Type: Tanker. MMSI: 235076274.

Date/timePositionNaut miles runAvg speedWind from/ knotsBaromVisibWave heightAir tempDewpointWater temp
2014-Dec-11 14:15N 39°51' W 075°20'  
2014-Dec-06 16:13N 27°04' W 079°43'2514.8
2014-Dec-06 14:33N 26°40' W 079°45'1514.7
2014-Dec-06 13:33N 26°25' W 079°47'1515.0
2014-Dec-06 12:33N 26°10' W 079°49'1515.1
2014-Dec-06 11:33N 25°56' W 079°51'1515.1
2014-Dec-06 10:33N 25°40' W 079°54'  
2014-Dec-01 18:28N 29°18' W 094°37'1112.1
2014-Dec-01 17:32N 29°22' W 094°49'3 3.6
2014-Dec-01 16:33N 29°22' W 094°53'  
Track history (hours):
 
Tides and Currents Weather Stations Pressure Air Temp Water Temp Dewpoint Dewpoint Depression Visibility Wind Speed Wind Dir Waves Ship Positions

Paramount Hamilton

Last reported at 2014-Dec-11 14:15 UTC. Time now 2014-Dec-19 17:27 UTC.
Position N 39°51' W 075°20'.
Warning: this ship's position is 8 days out of date.

Length 250 m; draft 10.6 m.

Type: Tanker. MMSI: 235076274.

Date/timePositionNaut miles runAvg speedWind from/ knotsBaromVisibWave heightAir tempDewpointWater temp
2014-Dec-11 14:15N 39°51' W 075°20'  
2014-Dec-06 16:13N 27°04' W 079°43'2514.8
2014-Dec-06 14:33N 26°40' W 079°45'1514.7
2014-Dec-06 13:33N 26°25' W 079°47'1515.0
2014-Dec-06 12:33N 26°10' W 079°49'1515.1
2014-Dec-06 11:33N 25°56' W 079°51'1515.1
2014-Dec-06 10:33N 25°40' W 079°54'  
2014-Dec-01 18:28N 29°18' W 094°37'1112.1
2014-Dec-01 17:32N 29°22' W 094°49'3 3.6
2014-Dec-01 16:33N 29°22' W 094°53'  

Dump ship's entire track history